createdAt,value
2023-01-10T00:00:57.122Z,99470.47
2023-01-10T00:03:24.043Z,99480.41
2023-01-10T00:05:50.994Z,99485.72
2023-01-10T00:08:18.002Z,99474.44
2023-01-10T00:10:44.904Z,99483.38
2023-01-10T00:13:24.364Z,99493.13
2023-01-10T00:15:54.200Z,99482.72
2023-01-10T00:18:21.937Z,99487.38
2023-01-10T00:20:49.533Z,99492.66
2023-01-10T00:23:18.330Z,99499.91
2023-01-10T00:25:46.084Z,99494.81
2023-01-10T00:28:23.612Z,99502.75
2023-01-10T00:31:12.158Z,99508.84
2023-01-10T00:33:39.208Z,99517.78
2023-01-10T00:36:09.756Z,99516.97
2023-01-10T00:38:36.917Z,99532.84
2023-01-10T00:41:24.619Z,99534.66
2023-01-10T00:43:57.264Z,99544.44
2023-01-10T00:46:24.557Z,99545.41
2023-01-10T00:48:51.513Z,99560.28
2023-01-10T00:51:18.974Z,99555.84
2023-01-10T00:53:45.888Z,99560.28
2023-01-10T00:56:12.898Z,99562.94
2023-01-10T00:58:39.810Z,99573.53
2023-01-10T01:01:06.810Z,99581.47
2023-01-10T01:03:34.361Z,99587.59
2023-01-10T01:06:06.205Z,99592.88
2023-01-10T01:08:33.548Z,99614.88
2023-01-10T01:11:00.933Z,99615.69
2023-01-10T01:13:27.829Z,99623.81
2023-01-10T01:15:59.316Z,99638.84
2023-01-10T01:18:27.387Z,99641.31
2023-01-10T01:20:57.944Z,99645.78
2023-01-10T01:23:25.049Z,99652.75
2023-01-10T01:25:53.856Z,99669.44
2023-01-10T01:28:21.911Z,99675.72
2023-01-10T01:30:50.324Z,99681.03
2023-01-10T01:33:18.763Z,99694.06
2023-01-10T01:35:48.862Z,99698.38
2023-01-10T01:38:16.702Z,99705.50
2023-01-10T01:40:44.884Z,99707.13
2023-01-10T01:43:26.702Z,99723.84
2023-01-10T01:45:55.109Z,99731.78
2023-01-10T01:48:42.188Z,99737.91
2023-01-10T01:51:26.242Z,99741.41
2023-01-10T01:54:02.262Z,99750.16
2023-01-10T01:56:38.568Z,99756.28
2023-01-10T01:59:21.985Z,99766.03
2023-01-10T02:01:52.817Z,99781.75
2023-01-10T02:04:30.313Z,99787.03
2023-01-10T02:06:58.828Z,99789.53
2023-01-10T02:09:43.545Z,99799.28
2023-01-10T02:12:10.710Z,99799.94
2023-01-10T02:14:38.397Z,99800.78
2023-01-10T02:17:08.817Z,99806.22
2023-01-10T02:20:11.718Z,99807.06
2023-01-10T02:23:35.687Z,99816.00
2023-01-10T02:26:42.719Z,99833.69
2023-01-10T02:29:41.935Z,99825.75
2023-01-10T02:32:40.631Z,99837.16
2023-01-10T02:35:49.912Z,99845.28
2023-01-10T02:38:35.069Z,99845.28
2023-01-10T02:41:18.793Z,99855.03
2023-01-10T02:43:54.258Z,99849.72
2023-01-10T02:46:30.996Z,99855.84
2023-01-10T02:48:57.983Z,99849.72
2023-01-10T02:51:33.306Z,99853.38
2023-01-10T02:54:30.618Z,99863.97
2023-01-10T02:57:09.711Z,99863.13
2023-01-10T03:00:10.494Z,99864.09
2023-01-10T03:03:08.351Z,99867.72
2023-01-10T03:05:52.977Z,99879.31
2023-01-10T03:08:48.383Z,99889.91
2023-01-10T03:11:15.674Z,99893.53
2023-01-10T03:14:03.703Z,99897.00
2023-01-10T03:16:34.591Z,99902.47
2023-01-10T03:19:08.292Z,99904.28
2023-01-10T03:21:38.725Z,99903.44
2023-01-10T03:24:24.012Z,99907.06
2023-01-10T03:27:11.315Z,99909.69
2023-01-10T03:30:21.339Z,99913.34
2023-01-10T03:32:48.385Z,99924.91
2023-01-10T03:35:15.924Z,99928.56
2023-01-10T03:38:08.351Z,99927.88
2023-01-10T03:41:03.601Z,99942.94
2023-01-10T03:44:16.065Z,99930.66
2023-01-10T03:46:58.099Z,99930.81
2023-01-10T03:49:27.339Z,99943.22
2023-01-10T03:51:55.227Z,99935.44
2023-01-10T03:54:22.255Z,99945.22
2023-01-10T03:56:51.503Z,99955.78
2023-01-10T03:59:26.634Z,99964.72
2023-01-10T04:01:55.270Z,99969.19
2023-01-10T04:04:22.396Z,99969.19
2023-01-10T04:06:49.428Z,99965.84
2023-01-10T04:09:16.380Z,99963.34
2023-01-10T04:11:43.294Z,99974.75
2023-01-10T04:14:10.229Z,99971.44
2023-01-10T04:16:37.164Z,99982.84
2023-01-10T04:19:04.161Z,99992.59
2023-01-10T04:21:31.091Z,99992.59
2023-01-10T04:23:58.002Z,99995.41
2023-01-10T04:26:25.998Z,100006.81
2023-01-10T04:28:52.945Z,99999.88
2023-01-10T04:31:20.016Z,100009.59
2023-01-10T04:33:46.979Z,100008.78
2023-01-10T04:36:13.882Z,100014.06
2023-01-10T04:38:40.791Z,100022.97
2023-01-10T04:41:07.717Z,100030.09
2023-01-10T04:43:35.034Z,100031.91
2023-01-10T04:46:02.080Z,100037.19
2023-01-10T04:48:29.027Z,100042.50
2023-01-10T04:50:55.959Z,100045.13
2023-01-10T04:53:23.052Z,100048.75
2023-01-10T04:55:50.007Z,100047.78
2023-01-10T04:58:17.025Z,100061.00
2023-01-10T05:00:43.963Z,100064.47
2023-01-10T05:03:10.956Z,100071.59
2023-01-10T05:05:37.908Z,100074.91
2023-01-10T05:08:05.398Z,100074.91
2023-01-10T05:10:32.302Z,100080.06
2023-01-10T05:12:59.208Z,100073.94
2023-01-10T05:15:26.146Z,100085.34
2023-01-10T05:17:59.483Z,100089.50
2023-01-10T05:20:26.857Z,100093.13
2023-01-10T05:22:53.816Z,100080.75
2023-01-10T05:25:20.733Z,100089.50
2023-01-10T05:27:47.645Z,100101.06
2023-01-10T05:30:15.011Z,100094.78
2023-01-10T05:32:42.082Z,100099.25
2023-01-10T05:35:09.970Z,100108.19
2023-01-10T05:37:38.134Z,100098.44
2023-01-10T05:40:06.246Z,100099.25
2023-01-10T05:42:33.571Z,100102.06
2023-01-10T05:45:00.544Z,100104.69
2023-01-10T05:47:27.584Z,100109.16
2023-01-10T05:49:54.502Z,100114.75
2023-01-10T05:52:24.312Z,100129.63
2023-01-10T05:54:51.268Z,100131.44
2023-01-10T05:57:19.104Z,100135.91
2023-01-10T05:59:46.029Z,100143.84
2023-01-10T06:02:13.368Z,100138.69
2023-01-10T06:04:40.350Z,100140.53
2023-01-10T06:07:07.279Z,100152.91
2023-01-10T06:09:34.175Z,100151.25
2023-01-10T06:12:01.121Z,100165.44
2023-01-10T06:14:28.148Z,100167.25
2023-01-10T06:16:55.081Z,100178.66
2023-01-10T06:19:21.992Z,100190.09
2023-01-10T06:21:48.884Z,100183.13
2023-01-10T06:24:15.821Z,100191.06
2023-01-10T06:26:42.754Z,100199.00
2023-01-10T06:29:09.831Z,100192.88
2023-01-10T06:31:36.801Z,100202.63
2023-01-10T06:34:03.796Z,100214.03
2023-01-10T06:36:30.738Z,100219.31
2023-01-10T06:38:57.655Z,100220.16
2023-01-10T06:41:24.628Z,100225.44
2023-01-10T06:43:51.545Z,100232.41
2023-01-10T06:46:19.685Z,100238.66
2023-01-10T06:48:47.723Z,100241.31
2023-01-10T06:51:19.111Z,100241.31
2023-01-10T06:53:47.389Z,100251.78
2023-01-10T06:56:14.349Z,100257.19
2023-01-10T06:58:41.291Z,100262.34
2023-01-10T07:01:14.819Z,100271.94
2023-01-10T07:03:42.222Z,100282.53
2023-01-10T07:06:12.508Z,100279.88
2023-01-10T07:08:42.103Z,100270.28
2023-01-10T07:11:10.217Z,100272.94
2023-01-10T07:13:37.577Z,100259.72
2023-01-10T07:16:07.572Z,100253.59
2023-01-10T07:18:36.110Z,100254.41
2023-01-10T07:21:03.641Z,100258.00
2023-01-10T07:23:31.550Z,100273.88
2023-01-10T07:26:02.738Z,100289.75
2023-01-10T07:28:29.955Z,100310.91
2023-01-10T07:31:00.287Z,100291.72
2023-01-10T07:33:28.442Z,100304.94
2023-01-10T07:35:55.804Z,100319.00
2023-01-10T07:38:22.743Z,100319.00
2023-01-10T07:40:49.668Z,100334.88
2023-01-10T07:43:16.573Z,100337.66
2023-01-10T07:45:43.510Z,100334.88
2023-01-10T07:48:10.595Z,100339.34
2023-01-10T07:50:38.514Z,100345.44
2023-01-10T07:53:07.661Z,100337.53
2023-01-10T07:55:38.944Z,100330.41
2023-01-10T07:58:10.534Z,100335.72
2023-01-10T08:00:37.670Z,100353.25
2023-01-10T08:03:06.181Z,100353.25
2023-01-10T08:05:33.905Z,100357.44
2023-01-10T08:08:09.234Z,100360.22
2023-01-10T08:10:37.739Z,100368.84
2023-01-10T08:13:17.760Z,100374.97
2023-01-10T08:15:47.208Z,100374.66
2023-01-10T08:18:14.281Z,100372.88
2023-01-10T08:20:41.760Z,100377.03
2023-01-10T08:23:08.693Z,100370.75
2023-01-10T08:25:36.536Z,100362.81
2023-01-10T08:28:04.505Z,100368.69
2023-01-10T08:30:31.792Z,100380.22
2023-01-10T08:33:01.252Z,100388.88
2023-01-10T08:35:28.233Z,100390.38
2023-01-10T08:38:00.037Z,100389.53
2023-01-10T08:40:27.449Z,100393.84
2023-01-10T08:43:04.095Z,100399.97
2023-01-10T08:45:31.165Z,100396.34
2023-01-10T08:47:58.252Z,100396.34
2023-01-10T08:50:25.585Z,100401.53
2023-01-10T08:52:52.572Z,100409.31
2023-01-10T08:55:20.793Z,100416.41
2023-01-10T08:57:47.822Z,100412.78
2023-01-10T09:00:15.428Z,100412.78
2023-01-10T09:02:42.771Z,100413.47
2023-01-10T09:05:22.248Z,100420.44
2023-01-10T09:07:59.911Z,100423.06
2023-01-10T09:10:28.580Z,100429.91
2023-01-10T09:12:58.610Z,100424.63
2023-01-10T09:15:32.299Z,100425.44
2023-01-10T09:18:05.586Z,100425.31
2023-01-10T09:20:36.454Z,100426.13
2023-01-10T09:23:13.580Z,100432.13
2023-01-10T09:25:40.486Z,100431.16
2023-01-10T09:28:07.608Z,100431.16
2023-01-10T09:30:35.059Z,100439.78
2023-01-10T09:33:02.867Z,100449.38
2023-01-10T09:35:31.912Z,100452.72
2023-01-10T09:38:03.491Z,100456.22
2023-01-10T09:40:54.890Z,100466.50
2023-01-10T09:43:52.849Z,100470.66
2023-01-10T09:46:44.019Z,100477.66
2023-01-10T09:49:43.983Z,100483.78
2023-01-10T09:52:31.085Z,100484.47
2023-01-10T09:55:06.090Z,100485.28
2023-01-10T09:57:33.194Z,100478.19
2023-01-10T10:00:02.186Z,100480.41
2023-01-10T10:02:45.380Z,100482.06
2023-01-10T10:05:25.580Z,100474.66
2023-01-10T10:07:56.675Z,100483.31
2023-01-10T10:10:33.947Z,100480.66
2023-01-10T10:13:28.323Z,100482.34
2023-01-10T10:16:21.707Z,100480.22
2023-01-10T10:19:10.372Z,100473.09
2023-01-10T10:22:06.202Z,100474.81
2023-01-10T10:25:11.830Z,100473.81
2023-01-10T10:28:23.841Z,100477.97
2023-01-10T10:31:24.003Z,100472.53
2023-01-10T10:34:24.950Z,100476.56
2023-01-10T10:37:09.210Z,100475.44
2023-01-10T10:39:47.285Z,100471.84
2023-01-10T10:42:18.491Z,100477.81
2023-01-10T10:45:11.606Z,100471.53
2023-01-10T10:47:42.957Z,100470.53
2023-01-10T10:50:16.066Z,100473.88
2023-01-10T10:52:45.482Z,100464.97
2023-01-10T10:55:31.065Z,100460.19
2023-01-10T10:58:00.484Z,100475.94
2023-01-10T11:00:29.520Z,100475.81
2023-01-10T11:03:25.584Z,100476.66
2023-01-10T11:05:53.272Z,100466.72
2023-01-10T11:08:22.627Z,100464.75
2023-01-10T11:10:59.108Z,100471.72
2023-01-10T11:13:35.083Z,100482.03
2023-01-10T11:16:05.922Z,100477.84
2023-01-10T11:18:33.960Z,100472.44
2023-01-10T11:21:06.231Z,100484.84
2023-01-10T11:23:54.108Z,100491.97
2023-01-10T11:26:23.912Z,100483.28
2023-01-10T11:29:18.672Z,100487.59
2023-01-10T11:31:47.266Z,100490.25
2023-01-10T11:34:58.835Z,100481.34
2023-01-10T11:37:34.499Z,100481.34
2023-01-10T11:40:25.684Z,100481.34
2023-01-10T11:42:54.842Z,100478.56
2023-01-10T11:45:31.350Z,100479.38
2023-01-10T11:48:34.197Z,100471.44
2023-01-10T11:51:27.368Z,100480.22
2023-01-10T11:54:10.161Z,100494.16
2023-01-10T11:56:41.316Z,100478.09
2023-01-10T11:59:18.841Z,100472.66
2023-01-10T12:01:54.957Z,100473.34
2023-01-10T12:04:23.343Z,100477.50
2023-01-10T12:06:55.392Z,100465.66
2023-01-10T12:09:45.334Z,100468.72
2023-01-10T12:12:25.950Z,100463.09
2023-01-10T12:14:55.207Z,100465.47
2023-01-10T12:17:21.984Z,100451.91
2023-01-10T12:19:53.153Z,100442.97
2023-01-10T12:22:26.799Z,100450.91
2023-01-10T12:24:55.848Z,100447.28
2023-01-10T12:27:25.648Z,100452.75
2023-01-10T12:30:14.141Z,100447.44
2023-01-10T12:32:53.881Z,100436.69
2023-01-10T12:35:34.218Z,100439.50
2023-01-10T12:38:09.684Z,100437.00
2023-01-10T12:40:52.085Z,100442.97
2023-01-10T12:43:49.481Z,100455.22
2023-01-10T12:47:13.354Z,100438.38
2023-01-10T12:50:08.381Z,100432.75
2023-01-10T12:52:59.847Z,100433.44
2023-01-10T12:55:34.370Z,100429.50
2023-01-10T12:58:05.173Z,100432.81
2023-01-10T13:00:48.697Z,100443.16
2023-01-10T13:03:21.223Z,100443.00
2023-01-10T13:05:49.731Z,100440.84
2023-01-10T13:08:23.731Z,100442.56
2023-01-10T13:10:54.463Z,100434.28
2023-01-10T13:13:35.822Z,100435.94
2023-01-10T13:16:23.627Z,100424.34
2023-01-10T13:19:12.042Z,100417.22
2023-01-10T13:21:42.580Z,100427.69
2023-01-10T13:24:15.751Z,100417.09
2023-01-10T13:27:03.894Z,100421.91
2023-01-10T13:29:37.456Z,100420.63
2023-01-10T13:32:28.539Z,100421.19
2023-01-10T13:35:09.667Z,100416.38
2023-01-10T13:37:38.524Z,100417.59
2023-01-10T13:40:06.300Z,100420.31
2023-01-10T13:42:56.246Z,100415.06
2023-01-10T13:45:31.228Z,100422.78
2023-01-10T13:48:01.651Z,100427.13
2023-01-10T13:50:37.763Z,100421.91
2023-01-10T13:53:05.145Z,100434.56
2023-01-10T13:55:58.075Z,100426.06
2023-01-10T13:58:43.241Z,100423.94
2023-01-10T14:01:56.164Z,100421.56
2023-01-10T14:04:34.570Z,100419.75
2023-01-10T14:07:28.978Z,100421.06
2023-01-10T14:10:19.598Z,100418.41
2023-01-10T14:13:15.120Z,100420.38
2023-01-10T14:15:48.497Z,100417.88
2023-01-10T14:18:35.552Z,100403.94
2023-01-10T14:21:08.938Z,100402.13
2023-01-10T14:23:48.402Z,100400.59
2023-01-10T14:26:37.831Z,100398.94
2023-01-10T14:29:13.766Z,100389.31
2023-01-10T14:31:49.664Z,100385.97
2023-01-10T14:34:36.684Z,100381.97
2023-01-10T14:37:09.524Z,100378.31
2023-01-10T14:39:37.081Z,100376.66
2023-01-10T14:42:12.516Z,100366.38
2023-01-10T14:44:49.494Z,100363.00
2023-01-10T14:47:30.825Z,100361.34
2023-01-10T14:50:04.554Z,100351.34
2023-01-10T14:52:31.949Z,100354.19
2023-01-10T14:55:16.688Z,100356.47
2023-01-10T14:57:58.627Z,100351.03
2023-01-10T15:00:36.663Z,100347.66
2023-01-10T15:03:04.569Z,100352.31
2023-01-10T15:05:39.185Z,100351.78
2023-01-10T15:08:27.555Z,100346.94
2023-01-10T15:11:04.254Z,100343.59
2023-01-10T15:13:34.681Z,100339.28
2023-01-10T15:16:01.930Z,100334.97
2023-01-10T15:18:43.321Z,100332.63
2023-01-10T15:21:13.449Z,100327.63
2023-01-10T15:23:43.992Z,100326.97
2023-01-10T15:26:28.886Z,100335.09
2023-01-10T15:29:23.939Z,100332.88
2023-01-10T15:31:53.249Z,100332.34
2023-01-10T15:34:26.405Z,100334.16
2023-01-10T15:36:57.259Z,100328.53
2023-01-10T15:39:29.895Z,100328.81
2023-01-10T15:42:09.549Z,100328.13
2023-01-10T15:44:40.191Z,100328.75
2023-01-10T15:47:52.612Z,100319.28
2023-01-10T15:50:33.829Z,100313.44
2023-01-10T15:53:10.587Z,100315.28
2023-01-10T15:55:52.550Z,100311.94
2023-01-10T15:58:30.628Z,100310.41
2023-01-10T16:00:59.718Z,100310.75
2023-01-10T16:03:43.920Z,100297.66
2023-01-10T16:06:25.683Z,100298.75
2023-01-10T16:08:57.177Z,100295.28
2023-01-10T16:11:51.328Z,100302.72
2023-01-10T16:14:18.231Z,100293.09
2023-01-10T16:16:45.140Z,100289.75
2023-01-10T16:19:14.562Z,100284.31
2023-01-10T16:21:46.866Z,100277.34
2023-01-10T16:24:23.081Z,100293.25
2023-01-10T16:26:50.828Z,100287.78
2023-01-10T16:29:20.430Z,100288.78
2023-01-10T16:31:47.490Z,100288.78
2023-01-10T16:34:14.798Z,100281.66
2023-01-10T16:36:43.635Z,100288.78
2023-01-10T16:39:19.316Z,100288.78
2023-01-10T16:42:05.553Z,100283.47
2023-01-10T16:44:34.296Z,100278.16
2023-01-10T16:47:02.121Z,100274.84
2023-01-10T16:49:29.623Z,100270.22
2023-01-10T16:51:57.798Z,100269.22
2023-01-10T16:54:25.826Z,100260.59
2023-01-10T16:56:54.540Z,100274.84
2023-01-10T16:59:33.491Z,100267.03
2023-01-10T17:02:00.706Z,100260.06
2023-01-10T17:04:34.909Z,100268.97
2023-01-10T17:07:02.088Z,100257.53
2023-01-10T17:09:31.107Z,100260.19
2023-01-10T17:12:03.652Z,100252.13
2023-01-10T17:14:38.647Z,100264.53
2023-01-10T17:17:05.810Z,100236.34
2023-01-10T17:19:32.858Z,100243.34
2023-01-10T17:22:00.391Z,100246.13
2023-01-10T17:24:29.580Z,100250.59
2023-01-10T17:26:56.675Z,100250.75
2023-01-10T17:29:23.627Z,100247.25
2023-01-10T17:31:50.706Z,100240.31
2023-01-10T17:34:17.789Z,100245.59
2023-01-10T17:37:05.026Z,100240.59
2023-01-10T17:39:37.522Z,100234.31
2023-01-10T17:42:06.271Z,100221.06
2023-01-10T17:44:33.380Z,100223.72
2023-01-10T17:47:00.391Z,100220.75
2023-01-10T17:49:27.314Z,100210.31
2023-01-10T17:51:54.792Z,100213.81
2023-01-10T17:54:22.119Z,100212.81
2023-01-10T17:56:49.019Z,100212.81
2023-01-10T17:59:15.931Z,100204.03
2023-01-10T18:01:43.087Z,100210.00
2023-01-10T18:04:10.087Z,100203.88
2023-01-10T18:06:37.269Z,100205.53
2023-01-10T18:09:04.764Z,100199.56
2023-01-10T18:11:33.608Z,100192.28
2023-01-10T18:14:20.534Z,100191.47
2023-01-10T18:16:47.575Z,100199.56
2023-01-10T18:19:14.548Z,100192.59
2023-01-10T18:21:41.573Z,100191.63
2023-01-10T18:24:08.547Z,100182.00
2023-01-10T18:26:35.532Z,100175.88
2023-01-10T18:29:02.682Z,100161.81
2023-01-10T18:31:29.631Z,100156.63
2023-01-10T18:33:57.002Z,100146.03
2023-01-10T18:36:24.517Z,100144.38
2023-01-10T18:38:52.167Z,100158.47
2023-01-10T18:41:20.552Z,100148.84
2023-01-10T18:43:48.224Z,100141.06
2023-01-10T18:46:22.763Z,100158.63
2023-01-10T18:48:52.728Z,100159.44
2023-01-10T18:51:19.917Z,100160.44
2023-01-10T18:53:47.606Z,100168.38
2023-01-10T18:56:15.948Z,100165.75
2023-01-10T18:58:43.244Z,100170.03
2023-01-10T19:01:12.835Z,100166.41
2023-01-10T19:03:40.348Z,100157.47
2023-01-10T19:06:14.302Z,100151.34
2023-01-10T19:08:42.574Z,100153.97
2023-01-10T19:11:14.265Z,100153.16
2023-01-10T19:13:43.520Z,100153.84
2023-01-10T19:16:28.194Z,100151.34
2023-01-10T19:19:05.392Z,100147.72
2023-01-10T19:21:33.853Z,100146.03
2023-01-10T19:24:04.343Z,100147.84
2023-01-10T19:26:32.077Z,100137.25
2023-01-10T19:28:59.195Z,100139.91
2023-01-10T19:31:28.818Z,100139.06
2023-01-10T19:34:00.187Z,100141.72
2023-01-10T19:36:28.313Z,100142.72
2023-01-10T19:38:57.589Z,100148.19
2023-01-10T19:41:26.919Z,100156.97
2023-01-10T19:44:03.381Z,100156.97
2023-01-10T19:46:36.799Z,100155.13
2023-01-10T19:49:08.357Z,100150.66
2023-01-10T19:51:40.603Z,100148.84
2023-01-10T19:54:08.944Z,100148.84
2023-01-10T19:56:36.520Z,100143.25
2023-01-10T19:59:03.721Z,100150.22
2023-01-10T20:01:31.855Z,100137.97
2023-01-10T20:04:01.986Z,100130.84
2023-01-10T20:06:32.343Z,100135.31
2023-01-10T20:08:59.352Z,100128.31
2023-01-10T20:11:37.037Z,100129.31
2023-01-10T20:14:12.136Z,100122.19
2023-01-10T20:16:39.087Z,100129.31
2023-01-10T20:19:09.606Z,100129.31
2023-01-10T20:21:43.892Z,100132.13
2023-01-10T20:24:20.144Z,100115.41
2023-01-10T20:26:49.435Z,100113.75
2023-01-10T20:29:17.074Z,100119.03
2023-01-10T20:31:47.884Z,100118.22
2023-01-10T20:34:14.997Z,100121.03
2023-01-10T20:36:41.916Z,100116.56
2023-01-10T20:39:08.890Z,100111.38
2023-01-10T20:41:37.143Z,100117.38
2023-01-10T20:44:04.247Z,100109.56
2023-01-10T20:46:32.757Z,100110.41
2023-01-10T20:49:02.603Z,100111.25
2023-01-10T20:51:38.775Z,100105.13
2023-01-10T20:54:08.149Z,100102.31
2023-01-10T20:56:35.303Z,100104.97
2023-01-10T20:59:03.110Z,100096.19
2023-01-10T21:01:34.851Z,100094.38
2023-01-10T21:04:05.093Z,100092.53
2023-01-10T21:06:33.027Z,100093.38
2023-01-10T21:09:00.476Z,100092.53
2023-01-10T21:11:27.546Z,100084.59
2023-01-10T21:13:54.588Z,100088.06
2023-01-10T21:16:22.310Z,100086.41
2023-01-10T21:18:50.480Z,100087.25
2023-01-10T21:21:25.024Z,100081.78
2023-01-10T21:23:54.472Z,100090.72
2023-01-10T21:26:22.166Z,100085.44
2023-01-10T21:28:49.069Z,100077.31
2023-01-10T21:31:19.773Z,100081.63
2023-01-10T21:33:47.039Z,100087.63
2023-01-10T21:36:14.034Z,100076.03
2023-01-10T21:38:41.584Z,100068.06
2023-01-10T21:41:14.004Z,100063.44
2023-01-10T21:43:45.167Z,100066.91
2023-01-10T21:46:12.134Z,100067.91
2023-01-10T21:48:39.035Z,100062.59
2023-01-10T21:51:06.131Z,100064.25
2023-01-10T21:53:33.210Z,100066.75
2023-01-10T21:56:00.251Z,100071.91
2023-01-10T21:58:27.547Z,100058.53
2023-01-10T22:01:01.399Z,100058.53
2023-01-10T22:03:30.791Z,100057.38
2023-01-10T22:05:57.751Z,100057.22
2023-01-10T22:08:24.651Z,100046.31
2023-01-10T22:10:51.545Z,100040.19
2023-01-10T22:13:18.527Z,100035.69
2023-01-10T22:15:45.575Z,100028.41
2023-01-10T22:18:12.508Z,100028.13
2023-01-10T22:20:43.261Z,100022.81
2023-01-10T22:23:10.159Z,100026.13
2023-01-10T22:25:37.164Z,100019.81
2023-01-10T22:28:04.149Z,100014.53
2023-01-10T22:30:31.092Z,100005.56
2023-01-10T22:32:58.023Z,100012.41
2023-01-10T22:35:26.224Z,100010.56
2023-01-10T22:37:55.963Z,100005.28
2023-01-10T22:40:23.598Z,100008.75
2023-01-10T22:42:52.428Z,100004.94
2023-01-10T22:45:19.435Z,99994.34
2023-01-10T22:47:49.520Z,99995.84
2023-01-10T22:50:19.457Z,99991.50
2023-01-10T22:52:50.174Z,99993.34
2023-01-10T22:55:18.202Z,99992.50
2023-01-10T22:57:47.393Z,99989.03
2023-01-10T23:00:15.311Z,99977.44
2023-01-10T23:02:42.390Z,99987.06
2023-01-10T23:05:09.587Z,99986.38
2023-01-10T23:07:36.508Z,99985.38
2023-01-10T23:10:08.449Z,99990.53
2023-01-10T23:12:39.119Z,99991.38
2023-01-10T23:15:06.686Z,99993.03
2023-01-10T23:17:33.693Z,99993.69
2023-01-10T23:20:00.597Z,99985.72
2023-01-10T23:22:27.554Z,99993.38
2023-01-10T23:24:54.603Z,99992.22
2023-01-10T23:27:21.529Z,99991.22
2023-01-10T23:29:49.322Z,99993.69
2023-01-10T23:32:16.238Z,99993.41
2023-01-10T23:34:43.166Z,99988.09
2023-01-10T23:37:10.323Z,99984.28
2023-01-10T23:39:37.263Z,99987.75
2023-01-10T23:42:04.287Z,99983.13
2023-01-10T23:44:31.503Z,99980.97
2023-01-10T23:46:58.478Z,99965.88
2023-01-10T23:49:25.500Z,99968.72
2023-01-10T23:51:52.425Z,99965.22
2023-01-10T23:54:19.343Z,99959.28
2023-01-10T23:56:46.293Z,99973.84
2023-01-10T23:59:13.250Z,99961.88
